sensor_id;sensor_type;location;lat;lon;timestamp;temperature;humidity
12309;DHT22;6217;48.150;17.142;2023-04-08T00:01:39;6.90;82.60
12309;DHT22;6217;48.150;17.142;2023-04-08T00:05:45;6.90;83.00
12309;DHT22;6217;48.150;17.142;2023-04-08T00:09:51;6.80;83.00
12309;DHT22;6217;48.150;17.142;2023-04-08T00:13:57;6.80;83.10
12309;DHT22;6217;48.150;17.142;2023-04-08T00:18:05;6.80;83.70
12309;DHT22;6217;48.150;17.142;2023-04-08T00:22:11;6.90;83.10
12309;DHT22;6217;48.150;17.142;2023-04-08T00:26:18;6.80;82.30
12309;DHT22;6217;48.150;17.142;2023-04-08T00:30:24;6.50;82.50
12309;DHT22;6217;48.150;17.142;2023-04-08T00:34:31;6.40;83.20
12309;DHT22;6217;48.150;17.142;2023-04-08T00:38:37;6.20;83.40
12309;DHT22;6217;48.150;17.142;2023-04-08T00:42:43;6.00;83.90
12309;DHT22;6217;48.150;17.142;2023-04-08T00:46:49;6.00;84.30
12309;DHT22;6217;48.150;17.142;2023-04-08T00:50:55;6.00;83.80
12309;DHT22;6217;48.150;17.142;2023-04-08T00:55:02;5.80;83.80
12309;DHT22;6217;48.150;17.142;2023-04-08T00:59:08;5.70;84.10
12309;DHT22;6217;48.150;17.142;2023-04-08T01:03:17;5.70;84.40
12309;DHT22;6217;48.150;17.142;2023-04-08T01:07:36;5.70;84.00
12309;DHT22;6217;48.150;17.142;2023-04-08T01:11:45;5.60;83.80
12309;DHT22;6217;48.150;17.142;2023-04-08T01:15:54;5.40;84.30
12309;DHT22;6217;48.150;17.142;2023-04-08T01:20:02;5.30;84.50
12309;DHT22;6217;48.150;17.142;2023-04-08T01:24:17;5.30;84.90
12309;DHT22;6217;48.150;17.142;2023-04-08T01:28:29;5.20;85.00
12309;DHT22;6217;48.150;17.142;2023-04-08T01:32:38;5.20;85.00
12309;DHT22;6217;48.150;17.142;2023-04-08T01:36:45;5.20;85.30
12309;DHT22;6217;48.150;17.142;2023-04-08T01:40:54;5.20;85.10
12309;DHT22;6217;48.150;17.142;2023-04-08T01:45:02;5.20;85.20
12309;DHT22;6217;48.150;17.142;2023-04-08T01:49:09;5.20;85.10
12309;DHT22;6217;48.150;17.142;2023-04-08T01:53:16;5.10;85.20
12309;DHT22;6217;48.150;17.142;2023-04-08T01:57:25;5.10;85.00
12309;DHT22;6217;48.150;17.142;2023-04-08T02:01:34;5.00;85.90
12309;DHT22;6217;48.150;17.142;2023-04-08T02:05:40;5.10;85.50
12309;DHT22;6217;48.150;17.142;2023-04-08T02:09:46;5.10;85.30
12309;DHT22;6217;48.150;17.142;2023-04-08T02:13:52;5.10;85.00
12309;DHT22;6217;48.150;17.142;2023-04-08T02:18:12;5.00;84.90
12309;DHT22;6217;48.150;17.142;2023-04-08T02:27:11;4.70;85.50
12309;DHT22;6217;48.150;17.142;2023-04-08T02:31:18;4.80;85.90
12309;DHT22;6217;48.150;17.142;2023-04-08T02:35:24;4.90;85.40
12309;DHT22;6217;48.150;17.142;2023-04-08T02:39:32;4.90;85.40
12309;DHT22;6217;48.150;17.142;2023-04-08T02:43:38;5.00;85.90
12309;DHT22;6217;48.150;17.142;2023-04-08T02:47:45;5.10;85.20
12309;DHT22;6217;48.150;17.142;2023-04-08T02:51:52;5.20;84.60
12309;DHT22;6217;48.150;17.142;2023-04-08T02:55:57;5.20;84.40
12309;DHT22;6217;48.150;17.142;2023-04-08T03:00:04;5.10;84.40
12309;DHT22;6217;48.150;17.142;2023-04-08T03:04:10;5.10;84.40
12309;DHT22;6217;48.150;17.142;2023-04-08T03:08:16;5.10;84.30
12309;DHT22;6217;48.150;17.142;2023-04-08T03:12:22;5.10;84.80
12309;DHT22;6217;48.150;17.142;2023-04-08T03:16:28;5.10;84.60
12309;DHT22;6217;48.150;17.142;2023-04-08T03:20:34;5.00;85.30
12309;DHT22;6217;48.150;17.142;2023-04-08T03:24:40;4.90;85.90
12309;DHT22;6217;48.150;17.142;2023-04-08T03:28:46;4.90;85.80
12309;DHT22;6217;48.150;17.142;2023-04-08T03:32:52;5.00;86.30
12309;DHT22;6217;48.150;17.142;2023-04-08T03:36:58;5.10;86.30
12309;DHT22;6217;48.150;17.142;2023-04-08T03:41:03;5.00;85.50
12309;DHT22;6217;48.150;17.142;2023-04-08T03:45:09;4.90;86.00
12309;DHT22;6217;48.150;17.142;2023-04-08T03:49:15;5.10;85.90
12309;DHT22;6217;48.150;17.142;2023-04-08T03:53:21;5.20;85.40
12309;DHT22;6217;48.150;17.142;2023-04-08T03:57:27;5.20;85.00
12309;DHT22;6217;48.150;17.142;2023-04-08T04:01:33;5.30;84.90
12309;DHT22;6217;48.150;17.142;2023-04-08T04:05:39;5.20;84.60
12309;DHT22;6217;48.150;17.142;2023-04-08T04:09:45;5.20;85.00
12309;DHT22;6217;48.150;17.142;2023-04-08T04:13:51;5.20;84.80
12309;DHT22;6217;48.150;17.142;2023-04-08T04:17:57;5.20;84.90
12309;DHT22;6217;48.150;17.142;2023-04-08T04:22:03;5.20;84.80
12309;DHT22;6217;48.150;17.142;2023-04-08T04:26:10;5.30;84.50
12309;DHT22;6217;48.150;17.142;2023-04-08T04:30:16;5.20;85.10
12309;DHT22;6217;48.150;17.142;2023-04-08T04:34:23;5.20;84.60
12309;DHT22;6217;48.150;17.142;2023-04-08T04:38:29;5.20;84.50
12309;DHT22;6217;48.150;17.142;2023-04-08T04:42:36;5.20;84.40
12309;DHT22;6217;48.150;17.142;2023-04-08T04:46:42;5.10;84.60
12309;DHT22;6217;48.150;17.142;2023-04-08T04:50:57;5.10;84.40
12309;DHT22;6217;48.150;17.142;2023-04-08T04:55:04;5.00;84.90
12309;DHT22;6217;48.150;17.142;2023-04-08T04:59:11;5.00;85.00
12309;DHT22;6217;48.150;17.142;2023-04-08T05:03:17;5.00;85.00
12309;DHT22;6217;48.150;17.142;2023-04-08T05:07:23;5.00;85.00
12309;DHT22;6217;48.150;17.142;2023-04-08T05:11:29;5.00;85.00
12309;DHT22;6217;48.150;17.142;2023-04-08T05:15:35;5.00;85.10
12309;DHT22;6217;48.150;17.142;2023-04-08T05:19:41;4.90;85.60
12309;DHT22;6217;48.150;17.142;2023-04-08T05:23:47;5.00;85.60
12309;DHT22;6217;48.150;17.142;2023-04-08T05:27:53;5.10;85.30
12309;DHT22;6217;48.150;17.142;2023-04-08T05:31:59;5.00;85.10
12309;DHT22;6217;48.150;17.142;2023-04-08T05:36:05;4.80;85.50
12309;DHT22;6217;48.150;17.142;2023-04-08T05:40:11;4.70;86.40
12309;DHT22;6217;48.150;17.142;2023-04-08T05:44:17;4.70;86.40
12309;DHT22;6217;48.150;17.142;2023-04-08T05:48:23;4.70;87.00
12309;DHT22;6217;48.150;17.142;2023-04-08T05:52:29;4.80;86.50
12309;DHT22;6217;48.150;17.142;2023-04-08T05:56:34;4.90;86.40
12309;DHT22;6217;48.150;17.142;2023-04-08T06:00:41;4.80;85.70
12309;DHT22;6217;48.150;17.142;2023-04-08T06:04:47;4.80;87.00
12309;DHT22;6217;48.150;17.142;2023-04-08T06:08:52;4.70;86.60
12309;DHT22;6217;48.150;17.142;2023-04-08T06:12:58;4.70;86.10
12309;DHT22;6217;48.150;17.142;2023-04-08T06:17:04;4.60;86.20
12309;DHT22;6217;48.150;17.142;2023-04-08T06:21:10;4.50;86.50
12309;DHT22;6217;48.150;17.142;2023-04-08T06:25:16;4.60;87.10
12309;DHT22;6217;48.150;17.142;2023-04-08T06:29:23;4.80;86.80
12309;DHT22;6217;48.150;17.142;2023-04-08T06:33:29;4.90;86.50
12309;DHT22;6217;48.150;17.142;2023-04-08T06:37:34;4.90;86.20
12309;DHT22;6217;48.150;17.142;2023-04-08T06:41:42;4.90;86.60
12309;DHT22;6217;48.150;17.142;2023-04-08T06:46:05;4.80;86.80
12309;DHT22;6217;48.150;17.142;2023-04-08T06:50:10;4.90;86.80
12309;DHT22;6217;48.150;17.142;2023-04-08T06:54:16;5.00;86.60
12309;DHT22;6217;48.150;17.142;2023-04-08T06:58:22;4.90;87.00
12309;DHT22;6217;48.150;17.142;2023-04-08T07:02:28;5.00;87.40
12309;DHT22;6217;48.150;17.142;2023-04-08T07:06:34;5.00;87.40
12309;DHT22;6217;48.150;17.142;2023-04-08T07:10:40;5.10;87.70
12309;DHT22;6217;48.150;17.142;2023-04-08T07:14:46;5.20;87.10
12309;DHT22;6217;48.150;17.142;2023-04-08T07:18:52;5.20;86.90
12309;DHT22;6217;48.150;17.142;2023-04-08T07:22:58;5.20;86.90
12309;DHT22;6217;48.150;17.142;2023-04-08T07:27:04;5.30;86.90
12309;DHT22;6217;48.150;17.142;2023-04-08T07:31:11;5.30;87.20
12309;DHT22;6217;48.150;17.142;2023-04-08T07:35:18;5.30;87.10
12309;DHT22;6217;48.150;17.142;2023-04-08T07:39:28;5.20;87.20
12309;DHT22;6217;48.150;17.142;2023-04-08T07:43:35;5.20;87.90
12309;DHT22;6217;48.150;17.142;2023-04-08T07:47:41;5.30;87.50
12309;DHT22;6217;48.150;17.142;2023-04-08T07:51:48;5.40;87.50
12309;DHT22;6217;48.150;17.142;2023-04-08T07:55:54;5.70;87.00
12309;DHT22;6217;48.150;17.142;2023-04-08T08:00:00;5.70;86.50
12309;DHT22;6217;48.150;17.142;2023-04-08T08:04:06;5.80;86.70
12309;DHT22;6217;48.150;17.142;2023-04-08T08:08:12;5.80;86.30
12309;DHT22;6217;48.150;17.142;2023-04-08T08:12:18;5.80;86.60
12309;DHT22;6217;48.150;17.142;2023-04-08T08:16:27;5.90;86.80
12309;DHT22;6217;48.150;17.142;2023-04-08T08:20:34;5.90;86.80
12309;DHT22;6217;48.150;17.142;2023-04-08T08:24:41;5.80;87.20
12309;DHT22;6217;48.150;17.142;2023-04-08T08:28:47;5.90;87.40
12309;DHT22;6217;48.150;17.142;2023-04-08T08:32:53;6.00;87.30
12309;DHT22;6217;48.150;17.142;2023-04-08T08:36:59;5.90;87.00
12309;DHT22;6217;48.150;17.142;2023-04-08T08:41:05;5.90;87.50
12309;DHT22;6217;48.150;17.142;2023-04-08T08:45:11;5.90;87.60
12309;DHT22;6217;48.150;17.142;2023-04-08T08:49:17;5.80;88.20
12309;DHT22;6217;48.150;17.142;2023-04-08T08:53:28;5.90;88.10
12309;DHT22;6217;48.150;17.142;2023-04-08T08:57:35;6.00;88.10
12309;DHT22;6217;48.150;17.142;2023-04-08T09:01:41;6.10;88.00
12309;DHT22;6217;48.150;17.142;2023-04-08T09:05:50;6.00;87.60
12309;DHT22;6217;48.150;17.142;2023-04-08T09:09:58;6.00;88.10
12309;DHT22;6217;48.150;17.142;2023-04-08T09:14:04;5.80;88.10
12309;DHT22;6217;48.150;17.142;2023-04-08T09:18:21;5.80;88.70
12309;DHT22;6217;48.150;17.142;2023-04-08T09:22:30;5.90;88.80
12309;DHT22;6217;48.150;17.142;2023-04-08T09:26:36;5.80;88.90
12309;DHT22;6217;48.150;17.142;2023-04-08T09:30:42;5.90;88.90
12309;DHT22;6217;48.150;17.142;2023-04-08T09:34:48;6.00;88.60
12309;DHT22;6217;48.150;17.142;2023-04-08T09:38:55;6.00;89.00
12309;DHT22;6217;48.150;17.142;2023-04-08T09:43:04;6.00;88.90
12309;DHT22;6217;48.150;17.142;2023-04-08T09:47:31;6.10;88.90
12309;DHT22;6217;48.150;17.142;2023-04-08T09:52:06;6.10;89.00
12309;DHT22;6217;48.150;17.142;2023-04-08T09:56:16;6.20;88.80
12309;DHT22;6217;48.150;17.142;2023-04-08T10:00:32;6.30;88.90
12309;DHT22;6217;48.150;17.142;2023-04-08T10:04:44;6.40;88.60
12309;DHT22;6217;48.150;17.142;2023-04-08T10:08:53;6.60;88.90
12309;DHT22;6217;48.150;17.142;2023-04-08T10:13:01;6.80;88.30
12309;DHT22;6217;48.150;17.142;2023-04-08T10:17:26;6.90;88.00
12309;DHT22;6217;48.150;17.142;2023-04-08T10:21:40;6.90;88.00
12309;DHT22;6217;48.150;17.142;2023-04-08T10:25:55;6.90;88.10
12309;DHT22;6217;48.150;17.142;2023-04-08T10:30:02;6.90;88.20
12309;DHT22;6217;48.150;17.142;2023-04-08T10:34:15;6.90;88.30
12309;DHT22;6217;48.150;17.142;2023-04-08T10:38:22;6.80;88.60
12309;DHT22;6217;48.150;17.142;2023-04-08T10:42:28;6.80;88.70
12309;DHT22;6217;48.150;17.142;2023-04-08T10:46:37;6.80;89.40
12309;DHT22;6217;48.150;17.142;2023-04-08T10:50:57;6.80;89.50
12309;DHT22;6217;48.150;17.142;2023-04-08T10:55:06;6.80;89.60
12309;DHT22;6217;48.150;17.142;2023-04-08T10:59:14;6.90;89.10
12309;DHT22;6217;48.150;17.142;2023-04-08T11:03:21;7.00;89.50
12309;DHT22;6217;48.150;17.142;2023-04-08T11:07:27;7.10;89.40
12309;DHT22;6217;48.150;17.142;2023-04-08T11:11:33;7.30;89.20
12309;DHT22;6217;48.150;17.142;2023-04-08T11:15:41;7.50;88.80
12309;DHT22;6217;48.150;17.142;2023-04-08T11:19:47;7.60;88.70
12309;DHT22;6217;48.150;17.142;2023-04-08T11:23:53;7.50;88.30
12309;DHT22;6217;48.150;17.142;2023-04-08T11:28:00;7.40;88.60
12309;DHT22;6217;48.150;17.142;2023-04-08T11:32:06;7.40;89.20
12309;DHT22;6217;48.150;17.142;2023-04-08T11:36:15;7.40;89.30
12309;DHT22;6217;48.150;17.142;2023-04-08T11:40:22;7.50;89.00
12309;DHT22;6217;48.150;17.142;2023-04-08T11:44:30;7.60;88.60
12309;DHT22;6217;48.150;17.142;2023-04-08T11:48:38;7.70;88.70
12309;DHT22;6217;48.150;17.142;2023-04-08T11:52:46;7.90;89.00
12309;DHT22;6217;48.150;17.142;2023-04-08T11:56:53;8.00;88.80
12309;DHT22;6217;48.150;17.142;2023-04-08T12:00:58;8.10;89.00
12309;DHT22;6217;48.150;17.142;2023-04-08T12:05:05;8.30;89.50
12309;DHT22;6217;48.150;17.142;2023-04-08T12:09:12;8.60;88.60
12309;DHT22;6217;48.150;17.142;2023-04-08T12:13:18;8.50;87.50
12309;DHT22;6217;48.150;17.142;2023-04-08T12:17:24;8.30;88.00
12309;DHT22;6217;48.150;17.142;2023-04-08T12:21:30;8.30;88.00
12309;DHT22;6217;48.150;17.142;2023-04-08T12:25:38;8.30;88.40
12309;DHT22;6217;48.150;17.142;2023-04-08T12:29:44;8.60;88.70
12309;DHT22;6217;48.150;17.142;2023-04-08T12:33:50;9.20;87.90
12309;DHT22;6217;48.150;17.142;2023-04-08T12:37:56;9.80;86.80
12309;DHT22;6217;48.150;17.142;2023-04-08T12:42:02;10.10;86.00
12309;DHT22;6217;48.150;17.142;2023-04-08T12:46:09;10.40;85.00
12309;DHT22;6217;48.150;17.142;2023-04-08T12:50:14;10.20;84.00
12309;DHT22;6217;48.150;17.142;2023-04-08T12:54:20;10.00;84.10
12309;DHT22;6217;48.150;17.142;2023-04-08T12:58:26;9.70;84.50
12309;DHT22;6217;48.150;17.142;2023-04-08T13:02:32;9.50;84.90
12309;DHT22;6217;48.150;17.142;2023-04-08T13:06:38;9.40;84.80
12309;DHT22;6217;48.150;17.142;2023-04-08T13:10:44;9.30;85.20
12309;DHT22;6217;48.150;17.142;2023-04-08T13:14:50;9.30;85.40
12309;DHT22;6217;48.150;17.142;2023-04-08T13:18:56;9.10;85.20
12309;DHT22;6217;48.150;17.142;2023-04-08T13:23:02;9.10;85.30
12309;DHT22;6217;48.150;17.142;2023-04-08T13:27:07;9.20;85.10
12309;DHT22;6217;48.150;17.142;2023-04-08T13:31:13;9.10;84.50
12309;DHT22;6217;48.150;17.142;2023-04-08T13:35:19;9.20;84.60
12309;DHT22;6217;48.150;17.142;2023-04-08T13:39:25;9.20;84.60
12309;DHT22;6217;48.150;17.142;2023-04-08T13:43:31;9.20;84.80
12309;DHT22;6217;48.150;17.142;2023-04-08T13:47:37;9.20;84.20
12309;DHT22;6217;48.150;17.142;2023-04-08T13:51:43;9.10;84.50
12309;DHT22;6217;48.150;17.142;2023-04-08T13:55:49;9.10;84.10
12309;DHT22;6217;48.150;17.142;2023-04-08T13:59:59;9.10;84.20
12309;DHT22;6217;48.150;17.142;2023-04-08T14:04:05;9.10;84.30
12309;DHT22;6217;48.150;17.142;2023-04-08T14:08:11;9.00;84.00
12309;DHT22;6217;48.150;17.142;2023-04-08T14:12:17;8.90;84.10
12309;DHT22;6217;48.150;17.142;2023-04-08T14:16:23;8.90;84.50
12309;DHT22;6217;48.150;17.142;2023-04-08T14:20:30;8.90;84.20
12309;DHT22;6217;48.150;17.142;2023-04-08T14:24:36;8.80;84.60
12309;DHT22;6217;48.150;17.142;2023-04-08T14:28:42;9.00;85.10
12309;DHT22;6217;48.150;17.142;2023-04-08T14:32:48;9.20;84.50
12309;DHT22;6217;48.150;17.142;2023-04-08T14:36:54;9.30;83.80
12309;DHT22;6217;48.150;17.142;2023-04-08T14:41:00;9.40;83.70
12309;DHT22;6217;48.150;17.142;2023-04-08T14:45:06;9.50;83.60
12309;DHT22;6217;48.150;17.142;2023-04-08T14:49:12;9.70;83.30
12309;DHT22;6217;48.150;17.142;2023-04-08T14:53:18;9.70;83.00
12309;DHT22;6217;48.150;17.142;2023-04-08T14:57:24;9.70;82.80
12309;DHT22;6217;48.150;17.142;2023-04-08T15:01:31;9.70;82.90
12309;DHT22;6217;48.150;17.142;2023-04-08T15:05:38;9.60;82.70
12309;DHT22;6217;48.150;17.142;2023-04-08T15:09:43;9.60;82.70
12309;DHT22;6217;48.150;17.142;2023-04-08T15:13:49;9.50;82.80
12309;DHT22;6217;48.150;17.142;2023-04-08T15:17:55;9.60;82.70
12309;DHT22;6217;48.150;17.142;2023-04-08T15:22:01;9.70;82.60
12309;DHT22;6217;48.150;17.142;2023-04-08T15:26:08;9.60;82.10
12309;DHT22;6217;48.150;17.142;2023-04-08T15:30:14;9.50;82.00
12309;DHT22;6217;48.150;17.142;2023-04-08T15:34:21;9.40;82.10
12309;DHT22;6217;48.150;17.142;2023-04-08T15:38:27;9.30;82.00
12309;DHT22;6217;48.150;17.142;2023-04-08T15:42:33;9.30;82.10
12309;DHT22;6217;48.150;17.142;2023-04-08T15:46:40;9.20;82.10
12309;DHT22;6217;48.150;17.142;2023-04-08T15:50:46;9.20;82.10
12309;DHT22;6217;48.150;17.142;2023-04-08T15:54:52;9.00;82.30
12309;DHT22;6217;48.150;17.142;2023-04-08T15:58:57;9.00;82.50
12309;DHT22;6217;48.150;17.142;2023-04-08T16:03:03;9.00;82.50
12309;DHT22;6217;48.150;17.142;2023-04-08T16:07:10;9.00;82.40
12309;DHT22;6217;48.150;17.142;2023-04-08T16:11:16;9.00;82.60
12309;DHT22;6217;48.150;17.142;2023-04-08T16:15:22;9.00;82.50
12309;DHT22;6217;48.150;17.142;2023-04-08T16:19:28;9.00;82.50
12309;DHT22;6217;48.150;17.142;2023-04-08T16:23:34;9.00;82.40
12309;DHT22;6217;48.150;17.142;2023-04-08T16:27:43;9.00;82.90
12309;DHT22;6217;48.150;17.142;2023-04-08T16:31:49;9.00;83.10
12309;DHT22;6217;48.150;17.142;2023-04-08T16:35:56;8.90;83.10
12309;DHT22;6217;48.150;17.142;2023-04-08T16:40:02;8.90;83.50
12309;DHT22;6217;48.150;17.142;2023-04-08T16:44:08;8.80;83.70
12309;DHT22;6217;48.150;17.142;2023-04-08T16:48:14;8.80;83.60
12309;DHT22;6217;48.150;17.142;2023-04-08T16:52:21;8.70;84.00
12309;DHT22;6217;48.150;17.142;2023-04-08T16:56:27;8.70;84.20
12309;DHT22;6217;48.150;17.142;2023-04-08T17:00:33;8.80;84.50
12309;DHT22;6217;48.150;17.142;2023-04-08T17:04:39;8.80;84.50
12309;DHT22;6217;48.150;17.142;2023-04-08T17:08:46;8.70;85.00
12309;DHT22;6217;48.150;17.142;2023-04-08T17:12:52;8.80;84.90
12309;DHT22;6217;48.150;17.142;2023-04-08T17:16:58;8.90;84.70
12309;DHT22;6217;48.150;17.142;2023-04-08T17:21:04;8.80;84.80
12309;DHT22;6217;48.150;17.142;2023-04-08T17:25:10;8.80;85.00
12309;DHT22;6217;48.150;17.142;2023-04-08T17:29:16;8.80;85.00
12309;DHT22;6217;48.150;17.142;2023-04-08T17:33:22;8.80;85.10
12309;DHT22;6217;48.150;17.142;2023-04-08T17:37:28;8.70;85.50
12309;DHT22;6217;48.150;17.142;2023-04-08T17:41:35;8.60;85.50
12309;DHT22;6217;48.150;17.142;2023-04-08T17:45:41;8.60;86.40
12309;DHT22;6217;48.150;17.142;2023-04-08T17:49:47;8.60;86.30
12309;DHT22;6217;48.150;17.142;2023-04-08T17:53:53;8.60;86.20
12309;DHT22;6217;48.150;17.142;2023-04-08T17:57:59;8.50;86.60
12309;DHT22;6217;48.150;17.142;2023-04-08T18:02:05;8.60;86.60
12309;DHT22;6217;48.150;17.142;2023-04-08T18:06:11;8.60;86.50
12309;DHT22;6217;48.150;17.142;2023-04-08T18:10:17;8.70;86.40
12309;DHT22;6217;48.150;17.142;2023-04-08T18:14:23;8.70;86.30
12309;DHT22;6217;48.150;17.142;2023-04-08T18:18:29;8.60;86.40
12309;DHT22;6217;48.150;17.142;2023-04-08T18:22:35;8.50;86.50
12309;DHT22;6217;48.150;17.142;2023-04-08T18:26:41;8.40;86.90
12309;DHT22;6217;48.150;17.142;2023-04-08T18:30:50;8.40;86.90
12309;DHT22;6217;48.150;17.142;2023-04-08T18:34:57;8.40;86.90
12309;DHT22;6217;48.150;17.142;2023-04-08T18:39:03;8.50;87.00
12309;DHT22;6217;48.150;17.142;2023-04-08T18:43:09;8.60;87.70
12309;DHT22;6217;48.150;17.142;2023-04-08T18:47:16;8.60;86.70
12309;DHT22;6217;48.150;17.142;2023-04-08T18:51:23;8.50;86.40
12309;DHT22;6217;48.150;17.142;2023-04-08T18:55:31;8.50;86.70
12309;DHT22;6217;48.150;17.142;2023-04-08T18:59:40;8.50;86.90
12309;DHT22;6217;48.150;17.142;2023-04-08T19:03:46;8.50;86.60
12309;DHT22;6217;48.150;17.142;2023-04-08T19:07:52;8.50;86.70
12309;DHT22;6217;48.150;17.142;2023-04-08T19:11:58;8.50;86.80
12309;DHT22;6217;48.150;17.142;2023-04-08T19:16:04;8.40;86.90
12309;DHT22;6217;48.150;17.142;2023-04-08T19:20:11;8.40;87.20
12309;DHT22;6217;48.150;17.142;2023-04-08T19:24:17;8.40;87.20
12309;DHT22;6217;48.150;17.142;2023-04-08T19:28:25;8.30;87.70
12309;DHT22;6217;48.150;17.142;2023-04-08T19:32:32;8.30;87.50
12309;DHT22;6217;48.150;17.142;2023-04-08T19:36:42;8.30;87.80
12309;DHT22;6217;48.150;17.142;2023-04-08T19:40:48;8.30;87.70
12309;DHT22;6217;48.150;17.142;2023-04-08T19:44:55;8.30;87.20
12309;DHT22;6217;48.150;17.142;2023-04-08T19:49:01;8.30;87.20
12309;DHT22;6217;48.150;17.142;2023-04-08T19:53:07;8.30;87.20
12309;DHT22;6217;48.150;17.142;2023-04-08T19:57:13;8.20;87.40
12309;DHT22;6217;48.150;17.142;2023-04-08T20:01:18;8.10;87.70
12309;DHT22;6217;48.150;17.142;2023-04-08T20:05:25;8.10;88.10
12309;DHT22;6217;48.150;17.142;2023-04-08T20:09:31;8.10;87.80
12309;DHT22;6217;48.150;17.142;2023-04-08T20:13:37;8.10;87.70
12309;DHT22;6217;48.150;17.142;2023-04-08T20:17:44;8.00;88.00
12309;DHT22;6217;48.150;17.142;2023-04-08T20:21:50;8.00;87.90
12309;DHT22;6217;48.150;17.142;2023-04-08T20:25:56;7.90;87.90
12309;DHT22;6217;48.150;17.142;2023-04-08T20:30:02;7.90;88.10
12309;DHT22;6217;48.150;17.142;2023-04-08T20:34:09;7.90;88.20
12309;DHT22;6217;48.150;17.142;2023-04-08T20:38:15;8.00;87.90
12309;DHT22;6217;48.150;17.142;2023-04-08T20:42:21;8.00;87.80
12309;DHT22;6217;48.150;17.142;2023-04-08T20:46:27;7.90;87.80
12309;DHT22;6217;48.150;17.142;2023-04-08T20:50:33;7.80;88.40
12309;DHT22;6217;48.150;17.142;2023-04-08T20:54:39;7.70;89.10
12309;DHT22;6217;48.150;17.142;2023-04-08T20:58:45;7.80;89.40
12309;DHT22;6217;48.150;17.142;2023-04-08T21:02:51;7.80;89.10
12309;DHT22;6217;48.150;17.142;2023-04-08T21:06:57;7.90;88.70
12309;DHT22;6217;48.150;17.142;2023-04-08T21:11:03;7.90;88.30
12309;DHT22;6217;48.150;17.142;2023-04-08T21:15:10;7.90;88.60
12309;DHT22;6217;48.150;17.142;2023-04-08T21:19:16;7.90;88.60
12309;DHT22;6217;48.150;17.142;2023-04-08T21:23:22;8.00;88.40
12309;DHT22;6217;48.150;17.142;2023-04-08T21:27:28;8.00;88.50
12309;DHT22;6217;48.150;17.142;2023-04-08T21:31:33;7.90;88.40
12309;DHT22;6217;48.150;17.142;2023-04-08T21:35:39;8.00;88.50
12309;DHT22;6217;48.150;17.142;2023-04-08T21:39:45;7.90;88.60
12309;DHT22;6217;48.150;17.142;2023-04-08T21:43:51;7.90;88.70
12309;DHT22;6217;48.150;17.142;2023-04-08T21:47:58;7.90;88.40
12309;DHT22;6217;48.150;17.142;2023-04-08T21:52:04;8.00;88.30
12309;DHT22;6217;48.150;17.142;2023-04-08T21:56:10;7.90;88.30
12309;DHT22;6217;48.150;17.142;2023-04-08T22:00:18;7.90;88.20
12309;DHT22;6217;48.150;17.142;2023-04-08T22:04:38;7.80;88.60
12309;DHT22;6217;48.150;17.142;2023-04-08T22:08:44;7.80;88.60
12309;DHT22;6217;48.150;17.142;2023-04-08T22:12:50;7.80;89.10
12309;DHT22;6217;48.150;17.142;2023-04-08T22:16:56;7.70;89.20
12309;DHT22;6217;48.150;17.142;2023-04-08T22:21:02;7.70;89.50
12309;DHT22;6217;48.150;17.142;2023-04-08T22:25:08;7.70;89.60
12309;DHT22;6217;48.150;17.142;2023-04-08T22:29:14;7.70;89.70
12309;DHT22;6217;48.150;17.142;2023-04-08T22:33:20;7.70;89.80
12309;DHT22;6217;48.150;17.142;2023-04-08T22:37:27;7.70;89.60
12309;DHT22;6217;48.150;17.142;2023-04-08T22:41:32;7.80;89.80
12309;DHT22;6217;48.150;17.142;2023-04-08T22:45:38;7.80;89.50
12309;DHT22;6217;48.150;17.142;2023-04-08T22:49:44;7.80;89.60
12309;DHT22;6217;48.150;17.142;2023-04-08T22:53:50;7.70;90.00
12309;DHT22;6217;48.150;17.142;2023-04-08T22:57:56;7.70;90.10
12309;DHT22;6217;48.150;17.142;2023-04-08T23:02:02;7.80;90.20
12309;DHT22;6217;48.150;17.142;2023-04-08T23:06:09;7.80;90.10
12309;DHT22;6217;48.150;17.142;2023-04-08T23:10:15;7.90;90.40
12309;DHT22;6217;48.150;17.142;2023-04-08T23:14:20;7.90;90.10
12309;DHT22;6217;48.150;17.142;2023-04-08T23:18:26;7.90;90.00
12309;DHT22;6217;48.150;17.142;2023-04-08T23:22:32;8.00;90.10
12309;DHT22;6217;48.150;17.142;2023-04-08T23:26:38;8.00;90.00
12309;DHT22;6217;48.150;17.142;2023-04-08T23:30:44;7.90;90.00
12309;DHT22;6217;48.150;17.142;2023-04-08T23:34:51;7.80;90.20
12309;DHT22;6217;48.150;17.142;2023-04-08T23:38:57;7.80;90.40
12309;DHT22;6217;48.150;17.142;2023-04-08T23:43:02;7.70;90.50
12309;DHT22;6217;48.150;17.142;2023-04-08T23:47:08;7.60;90.80
12309;DHT22;6217;48.150;17.142;2023-04-08T23:51:14;7.70;90.80
12309;DHT22;6217;48.150;17.142;2023-04-08T23:55:20;7.70;90.80
12309;DHT22;6217;48.150;17.142;2023-04-08T23:59:26;7.80;90.80
